Time;durP1;ratioP1;P1;durP2;ratioP2;P2;SDS_P1;SDS_P2;PMS_P1;PMS_P2;Temp;Humidity;BMP_temperature;BMP_pressure;BME280_temperature;BME280_humidity;BME280_pressure;Samples;Min_cycle;Max_cycle;Signal;HPM_P1;HPM_P2
2021/01/08 00:01:45;;;;;;;18.5;13.9;;;;;;;-0.1;76.02246;98446.76;;;;
2021/01/08 00:11:44;;;;;;;24.4;13.7;;;;;;;-0.1;76.39844;98447.56;;;;
2021/01/08 00:21:42;;;;;;;20.1;13.9;;;;;;;-0.2;75.9082;98442.12;;;;
2021/01/08 00:31:39;;;;;;;26.2;16.6;;;;;;;-0.28;75.83691;98444.38;;;;
2021/01/08 00:41:37;;;;;;;24.3;14;;;;;;;-0.26;75.63086;98447.58;;;;
2021/01/08 00:51:34;;;;;;;19.9;14.6;;;;;;;-0.3;74.84473;98444.61;;;;
2021/01/08 01:01:32;;;;;;;20.2;12.7;;;;;;;-0.3;73.38086;98444.61;;;;
2021/01/08 01:11:30;;;;;;;16.6;11.2;;;;;;;-0.32;73.3877;98449.36;;;;
2021/01/08 01:21:28;;;;;;;14.6;10;;;;;;;-0.33;74.30859;98446.94;;;;
2021/01/08 01:31:25;;;;;;;13.6;10.5;;;;;;;-0.36;75.10938;98450.88;;;;
2021/01/08 01:41:23;;;;;;;11.7;7.5;;;;;;;-0.29;75.52734;98445.41;;;;
2021/01/08 01:51:21;;;;;;;12.6;8.7;;;;;;;-0.3;75.61523;98439.31;;;;
2021/01/08 02:01:19;;;;;;;15.6;10;;;;;;;-0.3;75.74707;98436.67;;;;
2021/01/08 02:11:17;;;;;;;13.1;8.3;;;;;;;-0.31;75.8877;98419.16;;;;
2021/01/08 02:21:14;;;;;;;16;12;;;;;;;-0.24;75.6582;98413.7;;;;
2021/01/08 02:31:12;;;;;;;11.5;7.3;;;;;;;-0.25;76.01953;98397.04;;;;
2021/01/08 02:41:10;;;;;;;13.5;9.6;;;;;;;-0.33;76.4541;98404.57;;;;
2021/01/08 02:51:08;;;;;;;12.2;7.7;;;;;;;-0.28;76.34277;98409.96;;;;
2021/01/08 03:01:06;;;;;;;11.7;7.3;;;;;;;-0.26;76.22559;98399.91;;;;
2021/01/08 03:21:01;;;;;;;12;9.5;;;;;;;-0.27;76.55566;98404.41;;;;
2021/01/08 03:30:59;;;;;;;9.8;6.9;;;;;;;-0.23;76.41895;98408.18;;;;
2021/01/08 03:40:57;;;;;;;12.6;6.8;;;;;;;-0.14;76.08301;98413.88;;;;
2021/01/08 03:50:55;;;;;;;12.9;7.3;;;;;;;-0.1;76.2334;98415.78;;;;
2021/01/08 04:00:53;;;;;;;10.1;6.6;;;;;;;-0.07;76.82324;98407.34;;;;
2021/01/08 04:10:50;;;;;;;9;6.3;;;;;;;-0.01;76.34863;98413.53;;;;
2021/01/08 04:20:48;;;;;;;11.7;7.6;;;;;;;0.01;77.13379;98406.13;;;;
2021/01/08 04:30:46;;;;;;;9.5;7;;;;;;;0.01;77.13379;98398.19;;;;
2021/01/08 04:40:44;;;;;;;10.6;8.4;;;;;;;0.02;76.87109;98406.94;;;;
2021/01/08 04:50:42;;;;;;;13.4;9;;;;;;;0.03;77.08203;98411.2;;;;
2021/01/08 05:00:40;;;;;;;11.5;7;;;;;;;0.03;77.44434;98406.71;;;;
2021/01/08 05:10:37;;;;;;;7.7;6;;;;;;;0.06;76.60254;98400.12;;;;
2021/01/08 05:20:35;;;;;;;9;6.2;;;;;;;0.01;75.79004;98403.48;;;;
2021/01/08 05:30:33;;;;;;;14.2;6.1;;;;;;;0;75.63477;98407.98;;;;
2021/01/08 05:40:30;;;;;;;12.3;6.7;;;;;;;0.04;75.55273;98404.84;;;;
2021/01/08 05:50:28;;;;;;;11.8;6.8;;;;;;;0.09;75.4502;98402.27;;;;
2021/01/08 06:00:26;;;;;;;8.7;6.3;;;;;;;0;76.04199;98407.98;;;;
2021/01/08 06:10:24;;;;;;;12.4;8.1;;;;;;;0.04;75.72949;98410.13;;;;
2021/01/08 06:20:22;;;;;;;11.8;7.9;;;;;;;0.1;76.00488;98412.64;;;;
2021/01/08 06:30:22;;;;;;;12.2;7.1;;;;;;;0.03;75.58398;98409.36;;;;
2021/01/08 06:40:17;;;;;;;10.6;6.9;;;;;;;0.06;75.9082;98418.66;;;;
2021/01/08 06:50:15;;;;;;;8.2;5.9;;;;;;;0.04;76.36914;98416.23;;;;
2021/01/08 07:00:13;;;;;;;15.2;9.6;;;;;;;0;77.02148;98420.45;;;;
2021/01/08 07:10:11;;;;;;;13.7;9.2;;;;;;;-0.07;78.16602;98423.23;;;;
2021/01/08 07:20:09;;;;;;;22.5;13.4;;;;;;;-0.08;79.19629;98439.39;;;;
2021/01/08 07:30:08;;;;;;;26.6;19.8;;;;;;;0.01;78.19043;98437.92;;;;
2021/01/08 07:40:04;;;;;;;28.4;20.2;;;;;;;0.25;77.50781;98441.17;;;;
2021/01/08 07:50:02;;;;;;;25.4;21.4;;;;;;;0.26;76.29785;98453.38;;;;
2021/01/08 08:00:00;;;;;;;21.5;16.5;;;;;;;0.43;75.75488;98462.09;;;;
2021/01/08 08:09:58;;;;;;;19.4;17.3;;;;;;;0.59;76.06836;98471.06;;;;
2021/01/08 08:19:56;;;;;;;16.8;14;;;;;;;0.67;75.26855;98474.08;;;;
2021/01/08 08:29:54;;;;;;;14.2;10.6;;;;;;;0.75;73.94727;98481.61;;;;
2021/01/08 08:39:52;;;;;;;17.9;12.1;;;;;;;0.87;73.15039;98478.81;;;;
2021/01/08 08:49:50;;;;;;;16.6;13.3;;;;;;;0.98;72.4082;98473.39;;;;
2021/01/08 08:59:48;;;;;;;16.6;14.4;;;;;;;1.13;72.68652;98477.27;;;;
2021/01/08 09:09:46;;;;;;;25.2;15.5;;;;;;;1.28;71.99316;98480.09;;;;
2021/01/08 09:19:51;;;;;;;29.3;16.7;;;;;;;1.36;70.91211;98477.78;;;;
2021/01/08 09:29:42;;;;;;;73.3;56.5;;;;;;;1.46;68.93652;98479.72;;;;
2021/01/08 09:39:43;;;;;;;22.4;17;;;;;;;1.51;69.02246;98471.81;;;;
2021/01/08 09:49:38;;;;;;;30.5;20.4;;;;;;;1.63;70.1377;98476.98;;;;
2021/01/08 09:59:36;;;;;;;27;18.9;;;;;;;1.6;70.83008;98474.83;;;;
2021/01/08 10:09:34;;;;;;;19.7;12.3;;;;;;;1.65;70.10742;98474.86;;;;
2021/01/08 10:19:32;;;;;;;18.2;12.6;;;;;;;1.76;68.68652;98466.73;;;;
2021/01/08 10:29:30;;;;;;;18.4;11.5;;;;;;;1.85;67.53711;98461.73;;;;
2021/01/08 10:39:28;;;;;;;19.4;8.9;;;;;;;1.89;65.85645;98454.87;;;;
2021/01/08 10:49:26;;;;;;;11.4;9.6;;;;;;;2.07;65.78516;98451.81;;;;
2021/01/08 10:59:25;;;;;;;11.6;8.4;;;;;;;2.16;65.58887;98434.32;;;;
2021/01/08 11:09:22;;;;;;;11.6;8.6;;;;;;;2.03;67.24414;98435.58;;;;
2021/01/08 11:19:20;;;;;;;13.8;8.8;;;;;;;2.24;66.62012;98433.05;;;;
2021/01/08 11:29:19;;;;;;;13.5;9.2;;;;;;;2.4;65.40137;98413.44;;;;
2021/01/08 11:39:17;;;;;;;9.3;8.3;;;;;;;2.62;65.77051;98416.75;;;;
2021/01/08 11:49:15;;;;;;;11.8;8.7;;;;;;;2.43;63.88477;98423.59;;;;
2021/01/08 11:59:13;;;;;;;14.4;9.3;;;;;;;2.35;61.32715;98421.41;;;;
2021/01/08 12:09:11;;;;;;;16.2;8.2;;;;;;;2.36;60.17188;98417.7;;;;
2021/01/08 12:19:09;;;;;;;14.7;8.2;;;;;;;2.76;59.60547;98415.2;;;;
2021/01/08 12:29:08;;;;;;;11.3;7.6;;;;;;;2.96;56.59082;98399.29;;;;
2021/01/08 12:39:05;;;;;;;12;7.4;;;;;;;2.66;56.66211;98399.2;;;;
2021/01/08 12:49:05;;;;;;;10.8;6;;;;;;;2.53;58.61719;98408.45;;;;
2021/01/08 12:59:02;;;;;;;13.8;8.1;;;;;;;2.54;57.86035;98404.73;;;;
2021/01/08 13:09:00;;;;;;;15.2;9.5;;;;;;;2.57;58.1875;98400.75;;;;
2021/01/08 13:18:58;;;;;;;8.5;6.1;;;;;;;2.48;56.44922;98408.44;;;;
2021/01/08 13:28:56;;;;;;;10.2;7.7;;;;;;;2.38;55.85742;98416.38;;;;
2021/01/08 13:38:54;;;;;;;7.8;5.5;;;;;;;2.23;54.7002;98418.14;;;;
2021/01/08 13:48:52;;;;;;;7.8;5;;;;;;;2.04;54.87793;98428.41;;;;
2021/01/08 13:58:50;;;;;;;10;7.9;;;;;;;1.77;57.31055;98430.34;;;;
2021/01/08 14:08:48;;;;;;;12.3;7.6;;;;;;;1.53;58.68848;98437.06;;;;
2021/01/08 14:18:46;;;;;;;16.7;13.7;;;;;;;1.48;60.18262;98443.92;;;;
2021/01/08 14:28:44;;;;;;;23.3;14;;;;;;;1.42;61.40527;98442.25;;;;
2021/01/08 14:38:42;;;;;;;17.3;12.1;;;;;;;1.35;61.0293;98432.91;;;;
2021/01/08 14:48:43;;;;;;;17.9;12.2;;;;;;;1.2;61.96094;98432.75;;;;
2021/01/08 14:58:38;;;;;;;20.3;15.5;;;;;;;0.99;62.78418;98431.75;;;;
2021/01/08 15:08:35;;;;;;;27.9;18.2;;;;;;;0.64;64.3252;98420.73;;;;
2021/01/08 15:18:33;;;;;;;50.9;33.5;;;;;;;0.2;65.06738;98433.97;;;;
2021/01/08 15:28:31;;;;;;;51.4;32.1;;;;;;;-0.33;66.88379;98439.8;;;;
2021/01/08 15:38:29;;;;;;;28.1;20.6;;;;;;;-0.69;68.40332;98438.4;;;;
2021/01/08 15:48:26;;;;;;;25.3;15.9;;;;;;;-0.9;70.9668;98448.88;;;;
2021/01/08 15:58:25;;;;;;;30.7;19.2;;;;;;;-1.07;71.59766;98438.23;;;;
2021/01/08 16:08:22;;;;;;;27.2;19.3;;;;;;;-1.1;72.39648;98442.16;;;;
2021/01/08 16:18:19;;;;;;;24.8;14.8;;;;;;;-0.98;71.87695;98449.25;;;;
2021/01/08 16:28:17;;;;;;;25.4;17.6;;;;;;;-1.16;72.11035;98461.62;;;;
2021/01/08 16:38:15;;;;;;;24.6;17.8;;;;;;;-1.03;72.63867;98477.2;;;;
2021/01/08 16:48:12;;;;;;;26.9;18.1;;;;;;;-0.71;72.03223;98480.19;;;;
2021/01/08 16:58:10;;;;;;;22.3;16.3;;;;;;;-0.59;71.74512;98474.84;;;;
2021/01/08 17:08:08;;;;;;;22.1;17.8;;;;;;;-0.66;71.34766;98485.55;;;;
2021/01/08 17:18:05;;;;;;;22.9;18.3;;;;;;;-0.82;71.46387;98488.16;;;;
2021/01/08 17:28:03;;;;;;;27.2;20.2;;;;;;;-0.97;71.8457;98487.89;;;;
2021/01/08 17:38:02;;;;;;;32.4;21.2;;;;;;;-1.08;72.22363;98498.25;;;;
2021/01/08 17:47:58;;;;;;;51.1;36;;;;;;;-1.23;73.17578;98513.83;;;;
2021/01/08 17:57:56;;;;;;;33.7;23.3;;;;;;;-1.34;73.40918;98516.48;;;;
2021/01/08 18:07:53;;;;;;;45.3;25.6;;;;;;;-1.46;74.05762;98515.71;;;;
2021/01/08 18:17:51;;;;;;;38.5;26.5;;;;;;;-1.47;74.72559;98509.61;;;;
2021/01/08 18:27:49;;;;;;;40.1;27.8;;;;;;;-1.35;74.15527;98513.03;;;;
2021/01/08 18:37:46;;;;;;;54.3;28.1;;;;;;;-1.3;74.25;98536.13;;;;
2021/01/08 18:47:44;;;;;;;31.1;25.1;;;;;;;-1.18;74.30566;98532.42;;;;
2021/01/08 18:57:42;;;;;;;32;25.7;;;;;;;-0.99;73.98633;98533.08;;;;
2021/01/08 19:07:42;;;;;;;42.1;30.2;;;;;;;-0.88;74.14941;98542.83;;;;
2021/01/08 19:17:37;;;;;;;39.3;31.8;;;;;;;-0.78;73.85742;98544.86;;;;
2021/01/08 19:27:34;;;;;;;34.6;26.5;;;;;;;-0.69;73.86328;98544.24;;;;
2021/01/08 19:37:32;;;;;;;33.6;23;;;;;;;-0.62;73.82031;98552.84;;;;
2021/01/08 19:47:30;;;;;;;45.6;29.2;;;;;;;-0.49;72.99512;98562.37;;;;
2021/01/08 19:57:28;;;;;;;44.7;33.7;;;;;;;-0.43;72.93945;98574.65;;;;
2021/01/08 20:07:25;;;;;;;48;31.3;;;;;;;-0.41;72.56641;98566.45;;;;
2021/01/08 20:17:23;;;;;;;35.7;27;;;;;;;-0.43;72.99316;98563.25;;;;
2021/01/08 20:27:21;;;;;;;29.1;24;;;;;;;-0.39;72.53809;98569.69;;;;
2021/01/08 20:37:19;;;;;;;39.3;28.1;;;;;;;-0.42;72.51172;98578.91;;;;
2021/01/08 20:47:17;;;;;;;39.8;30.9;;;;;;;-0.36;72.31152;98590.39;;;;
2021/01/08 20:57:14;;;;;;;49.8;33;;;;;;;-0.31;72.13379;98596.56;;;;
2021/01/08 21:07:12;;;;;;;36.3;29.1;;;;;;;-0.25;72.02246;98603.59;;;;
2021/01/08 21:17:10;;;;;;;35.6;27.4;;;;;;;-0.17;71.62891;98611.13;;;;
2021/01/08 21:27:08;;;;;;;42.4;27.8;;;;;;;-0.13;72.05469;98612.27;;;;
2021/01/08 21:37:05;;;;;;;63;46.2;;;;;;;-0.15;73.27539;98624.95;;;;
2021/01/08 21:47:05;;;;;;;71.3;49.5;;;;;;;-0.15;73.8252;98635.55;;;;
2021/01/08 21:57:01;;;;;;;67;49.6;;;;;;;-0.19;74.44531;98633.6;;;;
2021/01/08 22:06:59;;;;;;;76.4;50.9;;;;;;;-0.21;74.07715;98641.77;;;;
2021/01/08 22:16:57;;;;;;;55.6;42.6;;;;;;;-0.21;74.04395;98640.99;;;;
2021/01/08 22:26:54;;;;;;;50.8;41.5;;;;;;;-0.15;74.05664;98648.79;;;;
2021/01/08 22:36:52;;;;;;;49.1;38.1;;;;;;;-0.11;73.76563;98652.58;;;;
2021/01/08 22:46:50;;;;;;;47.5;35.9;;;;;;;-0.11;73.69922;98657.06;;;;
2021/01/08 22:56:48;;;;;;;50.8;36.6;;;;;;;-0.16;74.02051;98652.47;;;;
2021/01/08 23:06:46;;;;;;;47.7;33.9;;;;;;;-0.22;74.55078;98656.07;;;;
2021/01/08 23:16:43;;;;;;;50.5;38.1;;;;;;;-0.29;75.3623;98662.54;;;;
2021/01/08 23:26:42;;;;;;;38;30.7;;;;;;;-0.29;75.87988;98665.19;;;;
2021/01/08 23:36:39;;;;;;;39.9;30.9;;;;;;;-0.29;76.16602;98676.59;;;;
2021/01/08 23:46:37;;;;;;;36.7;25.4;;;;;;;-0.32;77.46973;98676.25;;;;
2021/01/08 23:56:35;;;;;;;33.7;26;;;;;;;-0.27;77.28125;98655.16;;;;
